Hauptseite
METAR-TAF:

METAR-TAF

Flughäfen :

Flughafen Metz-Nancy-Lothringen

Metz-Nancy-Lorraine, Frankreich

Breite: 48-59N, Länge: 006-15E, Höhe: 264 m

Beobachtung

Neuester Wetterbericht von vor 41 Minuten, um 02:30 UTC
Wind 7 kt aus Nordost
Temperatur 1°C
Luftfeuchtigkeit 93%
Luftdruck 1025 hPa
Sichtweite: 8000 m

METAR: LFJL 170230Z AUTO 05007KT 8000 NSC 01/00 Q1025 NOSIG

Zeit: 04:11 (03:11 UTC)

Prognose

Neuester Wetterbericht von vor 4 Stunden und 11 Minuten, um 23:00 UTC
Gültige Prognose vom 17 um 00 UTC bis 17 um 24 UTC
Wind 10 kt aus Ost/Nordost
Sichtweite 10 km oder mehr
keine Wolken unter 1500 m und keine Kumulonimbus oder Gewitterwolken
Zeitweise
vom 17 um 11 UTC bis 17 um 20 UTC
Wind 15 kt aus Ost/Nordost, Böen bis zu 25 kt

TAF: LFJL 162300Z 1700/1724 07010KT CAVOK TEMPO 1711/1720 07015G25KT

Wetterbeobachtungen und Prognosen von mehr als 4000 Flughäfen (METAR und TAF Bericht).

Die verfügbaren Stationen werden durch gelbe und rote Markierungen auf der Karte dargestellt.

Führen Sie die Maus auf sie, um den Namen der Station zu sehen.

Darauf klicken, um die Beobachtung von Wetterbeobachtungen und Prognosen zu sehen.

Um die Karte zu ändern : klicken Sie auf den grünen Tasten mit einem schwarzen Kreuz Zum Vergrößern, auf den grünen Button mit einem Gedankenstrich zu verkleinern, oder auf die grünen Pfeile für benachbarte Karten.


METAR-TAF: